Forside
METAR-TAF:

METAR-TAF

Lufthavne :

Halmstad, Sverige

Breddekreds: 56-41N, længdekreds: 012-50E, højde: 30 m

Aktuelle vejr

Denne rapport blev lavet for 19 minutter siden, kl. 10:20 UTC
Vind 8 kt fra østsydøst, varierende mellem øst og sydøst
Temperatur 8°C
Fugtighed 93%
Tryk 1008 hPa
Sigt: 9000 m
let finregn,

METAR: ESMT 021020Z AUTO 11008KT 080V140 9000 -DZ BKN006/// OVC009/// 08/07 Q1008

Tid: 11:39 (10:39 UTC)

Vejrudsigter

Denne rapport blev lavet for 17 timer og 28 minutter siden, kl. 17:11 UTC
Foreløbig gælder fra 01 på 18 UTC til 01 på 20 UTC
Vind 7 kt fra sydøst
Sigt: 2000 m
Brudte skyer i en højde af 400 ft
dis
Midlertidig
fra 01 på 18 UTC til 01 på 20 UTC
Sigt: 6000 m
Nogle få skyer i en højde af 400 ft
Brudte skyer i en højde af 1500 ft

TAF: ESMT 011711Z 0118/0120 13007KT 2000 BR BKN004 TEMPO 0118/0120 6000 NSW FEW004 BKN015

Vejrobservationer og prognoser fra mere end 4000 lufthavne (METAR og TAF).

De gule og røde prikker repræsenterer de meteorologiske stationer.

Flyt musen over at se navnet på stationen.

Så klik over at se vejr observationer og prognoser.

At skifte det kort: Klik på de grønne knapper med et sort kors for at zoome ind; på den grønne knap med en bindestreg for at zoome ud; eller på de grønne pile for tilstødende kort.


METAR-TAF: